Catàleg de serveis del Meteocat

Dades de l'estació automàtica Tivissa

?
?
Resum diari 21:30 TU
Dades diàries de l'estació meteorològica
Temperatura mitjana 9.5 °C
Temperatura màxima 13.5 °C 13:34 TU
Temperatura mínima 5.9 °C 21:47 TU
Humitat relativa mitjana 69%
Precipitació acumulada 0.0 mm
Ratxa màxima del vent (10 m) 28.8 km/h - 330º 11:15 TU
Irradiació solar global 7.3 MJ/m2

El tram horari està expressat en Temps Universal (TU). Cal sumar una hora en horari d'hivern i dues en horari d'estiu per passar a l'hora oficial.

Tivissa

Metadades estació meteorol´gica
Municipi Tivissa
Comarca Ribera d'Ebre
Altitud 317 m
Data alta 26.03.2015
Estat actual Operativa
Dades de període
Període
TU
TM
°C
TX
°C
TN
°C
HRM
%
PPT
mm
VVM (10 m)
km/h
DVM (10 m)
graus
VVX (10 m)
km/h
RS
W/m2
00:00 - 00:30 9.9 10.2 9.6 67 0.0 6.8 265 27.7 0
00:30 - 01:00 9.8 10.1 9.5 67 0.0 6.5 262 25.6 0
01:00 - 01:30 9.6 9.8 9.5 67 0.0 6.1 266 19.8 0
01:30 - 02:00 9.8 10.0 9.6 65 0.0 9.0 298 25.2 0
02:00 - 02:30 9.8 10.0 9.6 66 0.0 8.3 284 23.8 0
02:30 - 03:00 9.6 9.7 9.5 67 0.0 7.6 271 23.0 0
03:00 - 03:30 9.5 9.7 9.3 68 0.0 6.8 275 25.6 0
03:30 - 04:00 9.2 9.6 9.0 69 0.0 5.4 265 16.9 0
04:00 - 04:30 9.1 9.3 8.9 69 0.0 4.7 278 16.6 0
04:30 - 05:00 9.0 9.3 8.9 69 0.0 6.1 254 27.0 0
05:00 - 05:30 8.9 9.0 8.8 70 0.0 6.1 279 22.7 0
05:30 - 06:00 8.7 8.9 8.6 71 0.0 5.8 263 17.3 0
06:00 - 06:30 8.5 8.7 8.2 72 0.0 4.7 273 14.4 0
06:30 - 07:00 8.4 8.5 8.2 72 0.0 5.0 276 14.8 0
07:00 - 07:30 8.2 8.4 8.1 73 0.0 4.7 270 18.7 7
07:30 - 08:00 8.4 8.5 8.2 73 0.0 5.4 284 20.2 30
08:00 - 08:30 9.0 9.4 8.7 71 0.0 5.0 266 13.7 109
08:30 - 09:00 9.9 10.4 9.4 67 0.0 5.8 274 19.8 196
09:00 - 09:30 10.9 11.2 10.4 63 0.0 6.8 278 19.8 269
09:30 - 10:00 11.4 11.8 10.8 61 0.0 (s/d) (s/d) (s/d) 333
10:00 - 10:30 11.5 12.0 11.2 60 0.0 9.4 295 27.4 376
10:30 - 11:00 11.7 12.1 11.3 60 0.0 8.3 265 22.7 296
11:00 - 11:30 11.3 12.0 11.0 61 0.0 13.3 314 28.8 291
11:30 - 12:00 11.6 12.1 11.3 61 0.0 10.4 308 26.3 268
12:00 - 12:30 11.7 12.1 11.4 62 0.0 9.4 308 21.2 304
12:30 - 13:00 12.2 12.5 11.7 60 0.0 7.6 303 19.4 299
13:00 - 13:30 12.2 12.9 12.0 59 0.0 10.1 310 22.3 307
13:30 - 14:00 12.9 13.5 12.5 57 0.0 12.6 258 23.4 323
14:00 - 14:30 13.0 13.4 12.6 57 0.0 6.1 285 21.2 305
14:30 - 15:00 12.6 13.4 11.9 57 0.0 5.0 287 15.5 205
15:00 - 15:30 12.5 12.7 12.0 58 0.0 5.4 258 10.4 127
15:30 - 16:00 11.9 12.2 11.2 60 0.0 5.8 261 10.8 82
16:00 - 16:30 10.5 11.1 9.9 65 0.0 4.7 260 13.0 16
16:30 - 17:00 9.6 10.2 8.8 68 0.0 3.6 243 11.9 0
17:00 - 17:30 8.3 9.1 7.2 73 0.0 2.5 162 6.1 0
17:30 - 18:00 7.2 8.1 7.0 79 0.0 1.1 221 3.6 0
18:00 - 18:30 6.9 7.8 6.3 80 0.0 1.1 122 5.0 0
18:30 - 19:00 6.4 6.9 6.0 84 0.0 1.1 113 5.0 0
19:00 - 19:30 6.1 6.3 6.0 87 0.0 6.1 103 9.7 0
19:30 - 20:00 6.5 7.0 6.2 84 0.0 8.6 109 12.6 0
20:00 - 20:30 6.6 7.2 6.1 83 0.0 6.5 112 10.8 0
20:30 - 21:00 6.5 6.7 6.2 84 0.0 2.9 119 8.3 0
21:00 - 21:30 6.4 7.2 6.1 85 0.0 6.5 108 11.5 0
21:30 - 22:00 6.3 6.9 5.9 84 0.0 1.8 156 7.2 0
22:00 - 22:30 (s/d) (s/d) (s/d) (s/d) (s/d) (s/d) (s/d) (s/d) (s/d)

Les dades en taronja només han passat un control de qualitat automàtic. Resta pendent la seva validació definitiva.